Time;durP1;ratioP1;P1;durP2;ratioP2;P2;SDS_P1;SDS_P2;PMS_P1;PMS_P2;Temp;Humidity;BMP_temperature;BMP_pressure;BME280_temperature;BME280_humidity;BME280_pressure;Samples;Min_cycle;Max_cycle;Signal;HPM_P1;HPM_P2
2023/12/24 00:02:17;;;;;;;1.43;0.50;;;7.60;99.90;;;;;;5053631;28;20456;-85
2023/12/24 00:04:45;;;;;;;0.30;0.30;;;7.60;99.90;;;;;;5053894;28;20438;-85
2023/12/24 00:07:12;;;;;;;0.40;0.30;;;7.60;99.90;;;;;;5053306;28;20477;-86
2023/12/24 00:09:38;;;;;;;0.30;0.30;;;7.60;99.90;;;;;;5053784;28;20442;-85
2023/12/24 00:12:06;;;;;;;0.30;0.30;;;7.60;99.90;;;;;;5053342;28;20445;-86
2023/12/24 00:14:33;;;;;;;0.30;0.30;;;7.50;99.90;;;;;;5053775;28;20474;-85
2023/12/24 00:16:59;;;;;;;0.40;0.40;;;7.50;99.90;;;;;;5053324;28;20458;-85
2023/12/24 00:19:26;;;;;;;1.10;0.30;;;7.50;99.90;;;;;;5053797;28;20804;-86
2023/12/24 00:21:54;;;;;;;0.30;0.30;;;7.50;99.90;;;;;;5053128;28;20433;-85
2023/12/24 00:24:21;;;;;;;0.30;0.30;;;7.50;99.90;;;;;;5053512;28;20481;-85
2023/12/24 00:26:48;;;;;;;0.30;0.20;;;7.50;99.90;;;;;;5052992;28;20461;-86
2023/12/24 00:29:15;;;;;;;0.50;0.30;;;7.40;99.90;;;;;;5053589;28;20441;-86
2023/12/24 00:31:41;;;;;;;0.30;0.30;;;7.50;99.90;;;;;;5053283;28;20442;-85
2023/12/24 00:34:08;;;;;;;0.30;0.30;;;7.50;99.90;;;;;;5053482;28;20456;-85
2023/12/24 00:36:35;;;;;;;0.30;0.30;;;7.50;99.90;;;;;;5052653;28;20444;-87
2023/12/24 00:39:04;;;;;;;0.53;0.30;;;7.50;99.90;;;;;;5052698;28;20938;-85
2023/12/24 00:41:31;;;;;;;0.30;0.30;;;7.40;99.90;;;;;;5053010;28;20442;-87
2023/12/24 00:43:57;;;;;;;0.30;0.30;;;7.40;99.90;;;;;;5053031;28;20473;-87
2023/12/24 00:46:24;;;;;;;0.30;0.30;;;7.40;99.90;;;;;;5053379;28;20446;-87
2023/12/24 00:48:51;;;;;;;0.30;0.30;;;7.50;99.90;;;;;;5053092;28;20465;-84
2023/12/24 00:51:18;;;;;;;0.40;0.30;;;7.40;99.90;;;;;;5055075;28;20442;-84
2023/12/24 00:53:45;;;;;;;0.30;0.30;;;7.40;99.90;;;;;;5080383;28;20487;-82
2023/12/24 00:56:13;;;;;;;0.40;0.30;;;7.40;99.90;;;;;;5058708;28;20438;-86
2023/12/24 00:58:40;;;;;;;0.30;0.30;;;7.40;99.90;;;;;;5057361;28;20465;-86
2023/12/24 01:01:06;;;;;;;0.30;0.30;;;7.30;99.90;;;;;;5057063;28;20477;-86
2023/12/24 01:03:33;;;;;;;0.30;0.30;;;7.40;99.90;;;;;;5056104;28;20982;-84
2023/12/24 01:06:00;;;;;;;0.80;0.40;;;7.40;99.90;;;;;;5057016;28;20803;-86
2023/12/24 01:08:27;;;;;;;0.40;0.30;;;7.40;99.90;;;;;;5056195;28;20997;-86
2023/12/24 01:10:53;;;;;;;2.17;0.40;;;7.40;99.90;;;;;;5056240;28;20446;-86
2023/12/24 01:13:21;;;;;;;0.30;0.30;;;7.40;99.90;;;;;;5056774;28;20434;-86
2023/12/24 01:15:48;;;;;;;0.40;0.30;;;7.50;99.90;;;;;;5056715;28;20440;-86
2023/12/24 01:18:15;;;;;;;0.30;0.30;;;7.50;99.90;;;;;;5056632;28;20476;-86
2023/12/24 01:20:42;;;;;;;0.30;0.20;;;7.50;99.90;;;;;;5056445;28;20442;-86
2023/12/24 01:23:09;;;;;;;0.40;0.40;;;7.50;99.90;;;;;;5056622;28;20477;-86
2023/12/24 01:25:35;;;;;;;0.40;0.33;;;7.60;99.90;;;;;;5056619;28;20449;-85
2023/12/24 01:28:02;;;;;;;0.30;0.20;;;7.60;99.90;;;;;;5056237;28;20457;-86
2023/12/24 01:30:30;;;;;;;0.30;0.30;;;7.60;99.90;;;;;;5056486;28;20438;-86
2023/12/24 01:32:57;;;;;;;0.30;0.30;;;7.60;99.90;;;;;;5056223;28;20438;-86
2023/12/24 01:35:24;;;;;;;0.40;0.40;;;7.60;99.90;;;;;;5056237;28;20430;-86
2023/12/24 01:37:51;;;;;;;0.30;0.30;;;7.60;99.90;;;;;;5056713;28;20967;-86
2023/12/24 01:40:17;;;;;;;0.40;0.30;;;7.50;99.90;;;;;;5056478;28;20437;-87
2023/12/24 01:42:45;;;;;;;0.40;0.30;;;7.60;99.90;;;;;;5056379;28;20476;-87
2023/12/24 01:45:12;;;;;;;0.30;0.27;;;7.60;99.90;;;;;;5055991;28;20475;-86
2023/12/24 01:47:41;;;;;;;0.50;0.40;;;7.60;99.90;;;;;;5056292;28;20480;-86
2023/12/24 01:50:09;;;;;;;0.40;0.30;;;7.60;99.90;;;;;;5056074;28;20441;-86
2023/12/24 01:52:37;;;;;;;0.30;0.30;;;7.60;99.90;;;;;;5056068;28;20492;-86
2023/12/24 01:55:06;;;;;;;0.30;0.30;;;7.70;99.90;;;;;;5056205;28;20957;-86
2023/12/24 01:57:34;;;;;;;0.30;0.20;;;7.70;99.90;;;;;;5055964;28;20454;-86
2023/12/24 02:00:01;;;;;;;0.40;0.30;;;7.60;99.90;;;;;;5056470;28;20445;-86
2023/12/24 02:02:31;;;;;;;0.40;0.40;;;7.60;99.90;;;;;;5055104;28;20448;-86
2023/12/24 02:04:59;;;;;;;0.30;0.30;;;7.60;99.90;;;;;;5055687;28;20470;-86
2023/12/24 02:07:28;;;;;;;0.37;0.27;;;7.70;99.90;;;;;;5055274;28;20481;-85
2023/12/24 02:09:55;;;;;;;0.30;0.30;;;7.70;99.90;;;;;;5055864;28;20438;-86
2023/12/24 02:12:22;;;;;;;0.50;0.30;;;7.70;99.90;;;;;;5055958;28;20512;-86
2023/12/24 02:14:48;;;;;;;0.70;0.70;;;7.70;99.90;;;;;;5056046;28;20434;-86
2023/12/24 02:17:17;;;;;;;0.30;0.30;;;7.70;99.90;;;;;;5055490;28;20458;-86
2023/12/24 02:19:44;;;;;;;0.30;0.30;;;7.60;99.90;;;;;;5055279;28;20811;-85
2023/12/24 02:22:12;;;;;;;0.30;0.30;;;7.70;99.90;;;;;;5055929;28;20438;-85
2023/12/24 02:24:39;;;;;;;0.43;0.43;;;7.60;99.90;;;;;;5055770;28;20492;-86
2023/12/24 02:27:15;;;;;;;0.30;0.30;;;7.60;99.90;;;;;;5055645;28;20468;-86
2023/12/24 02:29:44;;;;;;;0.30;0.30;;;7.60;99.90;;;;;;5054317;28;20941;-85
2023/12/24 02:32:14;;;;;;;0.40;0.30;;;7.60;99.90;;;;;;5055437;28;20449;-85
2023/12/24 02:34:42;;;;;;;0.40;0.40;;;7.60;99.90;;;;;;5054852;28;20823;-85
2023/12/24 02:37:09;;;;;;;0.40;0.33;;;7.60;99.90;;;;;;5054314;28;20454;-86
2023/12/24 02:39:38;;;;;;;0.37;0.30;;;7.60;99.90;;;;;;5054567;28;20947;-86
2023/12/24 02:42:05;;;;;;;0.40;0.30;;;7.60;99.90;;;;;;5054472;28;20461;-86
2023/12/24 02:44:32;;;;;;;0.40;0.40;;;7.60;99.90;;;;;;5051891;28;20476;-86
2023/12/24 02:46:59;;;;;;;0.40;0.40;;;7.70;99.90;;;;;;5055147;28;20465;-86
2023/12/24 02:49:26;;;;;;;0.37;0.37;;;7.80;99.90;;;;;;5055233;28;20806;-86
2023/12/24 02:51:52;;;;;;;0.30;0.30;;;7.70;99.90;;;;;;5054510;28;20987;-86
2023/12/24 02:54:19;;;;;;;0.43;0.30;;;7.60;99.90;;;;;;5054897;28;20442;-86
2023/12/24 02:56:47;;;;;;;0.30;0.30;;;7.60;99.90;;;;;;5054474;28;20438;-85
2023/12/24 02:59:14;;;;;;;0.30;0.30;;;7.70;99.90;;;;;;5055081;28;20442;-86
2023/12/24 03:01:41;;;;;;;0.40;0.30;;;7.70;99.90;;;;;;5054795;28;20438;-86
2023/12/24 03:04:07;;;;;;;0.40;0.30;;;7.70;99.90;;;;;;5061919;28;20448;-85
2023/12/24 03:06:34;;;;;;;0.50;0.40;;;7.70;99.90;;;;;;5070030;28;20449;-86
2023/12/24 03:09:01;;;;;;;0.40;0.30;;;7.70;99.90;;;;;;5054633;28;20442;-86
2023/12/24 03:11:28;;;;;;;0.30;0.30;;;7.70;99.90;;;;;;5054728;28;20785;-86
2023/12/24 03:13:56;;;;;;;0.33;0.30;;;7.70;99.90;;;;;;5053204;28;20446;-85
2023/12/24 03:16:23;;;;;;;0.30;0.30;;;7.60;99.90;;;;;;5054008;28;20441;-86
2023/12/24 03:18:50;;;;;;;0.40;0.30;;;7.70;99.90;;;;;;5054341;28;20464;-86
2023/12/24 03:21:16;;;;;;;0.40;0.40;;;7.60;99.90;;;;;;5053815;28;20453;-86
2023/12/24 03:23:43;;;;;;;0.30;0.30;;;7.60;99.90;;;;;;5053716;28;20473;-86
2023/12/24 03:26:19;;;;;;;0.30;0.30;;;7.60;99.90;;;;;;5054363;28;20442;-86
2023/12/24 03:28:47;;;;;;;0.30;0.30;;;7.60;99.90;;;;;;5054033;28;20484;-86
2023/12/24 03:31:15;;;;;;;0.30;0.30;;;7.60;99.90;;;;;;5053822;28;20446;-86
2023/12/24 03:33:42;;;;;;;0.47;0.40;;;7.60;99.90;;;;;;5053817;28;20437;-86
2023/12/24 03:36:09;;;;;;;0.43;0.30;;;7.60;99.90;;;;;;5053710;28;20812;-86
2023/12/24 03:38:36;;;;;;;0.30;0.30;;;7.70;99.90;;;;;;5053671;28;20473;-86
2023/12/24 03:41:03;;;;;;;1.00;0.40;;;7.70;99.90;;;;;;5054058;28;20442;-86
2023/12/24 03:43:30;;;;;;;0.30;0.30;;;7.70;99.90;;;;;;5053152;28;20434;-86
2023/12/24 03:45:57;;;;;;;0.50;0.40;;;7.70;99.90;;;;;;5053843;28;20434;-86
2023/12/24 03:48:26;;;;;;;0.33;0.33;;;7.70;99.90;;;;;;5054022;28;20466;-86
2023/12/24 03:50:52;;;;;;;0.30;0.30;;;7.70;99.90;;;;;;5053976;28;20818;-85
2023/12/24 03:53:19;;;;;;;0.40;0.30;;;7.70;99.90;;;;;;5053559;28;20438;-86
2023/12/24 03:55:46;;;;;;;0.40;0.30;;;7.60;99.90;;;;;;5053711;28;20509;-86
2023/12/24 03:58:13;;;;;;;0.40;0.30;;;7.70;99.90;;;;;;5053576;28;20450;-86
2023/12/24 04:00:40;;;;;;;0.30;0.30;;;7.70;99.90;;;;;;5053677;28;20442;-85
2023/12/24 04:03:07;;;;;;;0.30;0.30;;;7.70;99.90;;;;;;5053474;28;20438;-85
2023/12/24 04:05:35;;;;;;;0.30;0.30;;;7.70;99.90;;;;;;5053030;28;20474;-86
2023/12/24 04:08:03;;;;;;;0.40;0.30;;;7.70;99.90;;;;;;5053084;28;20480;-86
2023/12/24 04:10:30;;;;;;;0.70;0.30;;;7.70;99.90;;;;;;5053395;28;20464;-86
2023/12/24 04:13:00;;;;;;;0.30;0.30;;;7.70;99.90;;;;;;5053469;28;20434;-86
2023/12/24 04:15:27;;;;;;;0.30;0.30;;;7.70;99.90;;;;;;5053213;28;20927;-86
2023/12/24 04:17:53;;;;;;;0.53;0.40;;;7.70;99.90;;;;;;5053397;28;20466;-85
2023/12/24 04:20:20;;;;;;;0.30;0.30;;;7.80;99.90;;;;;;5053441;28;20438;-86
2023/12/24 04:22:48;;;;;;;0.30;0.30;;;7.70;99.90;;;;;;5052680;28;20426;-86
2023/12/24 04:25:15;;;;;;;0.30;0.30;;;7.80;99.90;;;;;;5052839;28;20484;-86
2023/12/24 04:27:42;;;;;;;0.30;0.30;;;7.80;99.90;;;;;;5053300;28;20466;-85
2023/12/24 04:30:10;;;;;;;0.60;0.30;;;7.80;99.90;;;;;;5053120;28;20441;-86
2023/12/24 04:32:37;;;;;;;0.77;0.30;;;7.80;99.90;;;;;;5052887;28;20434;-85
2023/12/24 04:35:04;;;;;;;0.97;0.40;;;7.80;99.90;;;;;;5053222;28;20943;-85
2023/12/24 04:37:31;;;;;;;0.40;0.30;;;7.70;99.90;;;;;;5052959;28;20454;-86
2023/12/24 04:39:59;;;;;;;0.30;0.30;;;7.60;99.90;;;;;;5053465;28;20446;-85
2023/12/24 04:42:26;;;;;;;0.30;0.30;;;7.70;99.90;;;;;;5053468;28;20437;-86
2023/12/24 04:44:53;;;;;;;0.40;0.33;;;7.70;99.90;;;;;;5053749;28;20470;-86
2023/12/24 04:47:19;;;;;;;0.40;0.40;;;7.70;99.90;;;;;;5053104;28;20971;-85
2023/12/24 04:49:46;;;;;;;0.30;0.30;;;7.70;99.90;;;;;;5053235;28;20430;-86
2023/12/24 04:52:13;;;;;;;0.30;0.30;;;7.60;99.90;;;;;;5052773;28;20943;-86
2023/12/24 04:54:39;;;;;;;0.53;0.40;;;7.60;99.90;;;;;;5053483;28;20449;-85
2023/12/24 04:57:08;;;;;;;0.30;0.30;;;7.50;99.90;;;;;;5053244;28;20465;-86
2023/12/24 04:59:34;;;;;;;0.40;0.30;;;7.40;99.90;;;;;;5053002;28;20938;-86
2023/12/24 05:02:01;;;;;;;0.30;0.27;;;7.40;99.90;;;;;;5052799;28;20446;-86
2023/12/24 05:04:32;;;;;;;0.60;0.50;;;7.40;99.90;;;;;;5052298;28;21001;-85
2023/12/24 05:06:59;;;;;;;0.60;0.40;;;7.30;99.90;;;;;;5051741;28;20480;-86
2023/12/24 05:09:26;;;;;;;0.30;0.30;;;7.30;99.90;;;;;;5053059;28;20434;-86
2023/12/24 05:11:53;;;;;;;0.30;0.30;;;7.40;99.90;;;;;;5053041;28;20442;-83
2023/12/24 05:14:21;;;;;;;0.30;0.30;;;7.40;99.90;;;;;;5052791;28;20473;-85
2023/12/24 05:16:48;;;;;;;0.50;0.40;;;7.50;99.90;;;;;;5075546;28;20462;-81
2023/12/24 05:19:14;;;;;;;0.40;0.40;;;7.40;99.90;;;;;;5054048;28;20450;-87
2023/12/24 05:21:41;;;;;;;0.30;0.30;;;7.30;99.90;;;;;;5052268;28;20453;-87
2023/12/24 05:24:08;;;;;;;0.40;0.30;;;7.30;99.90;;;;;;5051159;28;20434;-87
2023/12/24 05:26:35;;;;;;;2.10;0.70;;;7.30;99.90;;;;;;5052281;28;20977;-87
2023/12/24 05:29:01;;;;;;;0.40;0.30;;;7.30;99.90;;;;;;5052790;28;20438;-87
2023/12/24 05:31:30;;;;;;;0.30;0.30;;;7.20;99.90;;;;;;5052693;28;20430;-87
2023/12/24 05:33:57;;;;;;;0.30;0.30;;;7.20;99.90;;;;;;5052942;28;20505;-87
2023/12/24 05:36:23;;;;;;;0.30;0.30;;;7.20;99.90;;;;;;5052486;28;20449;-86
2023/12/24 05:38:50;;;;;;;0.30;0.20;;;7.10;99.90;;;;;;5055831;28;20461;-87
2023/12/24 05:41:17;;;;;;;0.30;0.30;;;7.10;99.90;;;;;;5056298;28;20442;-86
2023/12/24 05:43:44;;;;;;;0.83;0.30;;;7.10;99.90;;;;;;5056582;28;20448;-87
2023/12/24 05:46:13;;;;;;;0.30;0.30;;;7.20;99.90;;;;;;5056515;28;20497;-87
2023/12/24 05:48:42;;;;;;;0.30;0.30;;;7.20;99.90;;;;;;5056485;28;20469;-87
2023/12/24 05:51:09;;;;;;;0.80;0.30;;;7.10;99.90;;;;;;5056238;28;20437;-88
2023/12/24 05:53:35;;;;;;;0.40;0.30;;;7.20;99.90;;;;;;5056330;28;20445;-87
2023/12/24 05:56:02;;;;;;;0.30;0.30;;;7.20;99.90;;;;;;5056489;28;20446;-88
2023/12/24 05:58:29;;;;;;;0.73;0.40;;;7.20;99.90;;;;;;5056541;28;20461;-87
2023/12/24 06:00:56;;;;;;;0.67;0.30;;;7.20;99.90;;;;;;5055881;28;20438;-86
2023/12/24 06:03:23;;;;;;;0.40;0.30;;;7.20;99.90;;;;;;5056231;28;20442;-87
2023/12/24 06:05:51;;;;;;;0.30;0.30;;;7.20;99.90;;;;;;5055798;28;20488;-86
2023/12/24 06:08:18;;;;;;;0.50;0.30;;;7.30;99.90;;;;;;5055261;28;20512;-86
2023/12/24 06:10:45;;;;;;;0.40;0.40;;;7.40;99.90;;;;;;5055696;28;20441;-86
2023/12/24 06:13:12;;;;;;;0.30;0.30;;;7.30;99.90;;;;;;5055918;28;20942;-87
2023/12/24 06:15:39;;;;;;;0.30;0.30;;;7.30;99.90;;;;;;5056191;28;20442;-87
2023/12/24 06:18:06;;;;;;;0.37;0.30;;;7.30;99.90;;;;;;5056093;28;20550;-87
2023/12/24 06:20:33;;;;;;;0.40;0.40;;;7.30;99.90;;;;;;5055492;28;20446;-86
2023/12/24 06:23:02;;;;;;;0.70;0.40;;;7.30;99.90;;;;;;5055429;28;20440;-87
2023/12/24 06:25:29;;;;;;;0.40;0.40;;;7.30;99.90;;;;;;5055718;28;20576;-86
2023/12/24 06:27:55;;;;;;;2.40;0.30;;;7.30;99.90;;;;;;5055392;28;20821;-86
2023/12/24 06:30:22;;;;;;;0.30;0.30;;;7.30;99.90;;;;;;5055705;28;20445;-87
2023/12/24 06:32:49;;;;;;;0.30;0.20;;;7.30;99.90;;;;;;5055231;28;20479;-86
2023/12/24 06:35:16;;;;;;;0.30;0.30;;;7.40;99.90;;;;;;5055259;28;20447;-86
2023/12/24 06:37:43;;;;;;;0.30;0.20;;;7.40;99.90;;;;;;5055149;28;20458;-86
2023/12/24 06:40:11;;;;;;;0.30;0.30;;;7.50;99.90;;;;;;5055551;28;20445;-87
2023/12/24 06:42:38;;;;;;;0.40;0.30;;;7.50;99.90;;;;;;5055284;28;20438;-87
2023/12/24 06:45:06;;;;;;;0.30;0.23;;;7.50;99.90;;;;;;5055373;28;20843;-86
2023/12/24 06:47:33;;;;;;;5.10;0.40;;;7.50;99.90;;;;;;5055145;28;20462;-86
2023/12/24 06:49:59;;;;;;;0.40;0.30;;;7.50;99.90;;;;;;5055060;28;20438;-87
2023/12/24 06:52:27;;;;;;;0.30;0.30;;;7.60;99.90;;;;;;5054964;28;20438;-87
2023/12/24 06:54:54;;;;;;;0.30;0.20;;;7.50;99.90;;;;;;5054813;28;20435;-87
2023/12/24 06:57:22;;;;;;;0.40;0.40;;;7.60;99.90;;;;;;5055095;28;20473;-87
2023/12/24 06:59:49;;;;;;;1.27;0.50;;;7.60;99.90;;;;;;5055192;28;20437;-87
2023/12/24 07:02:16;;;;;;;0.30;0.30;;;7.50;99.90;;;;;;5055407;28;20446;-86
2023/12/24 07:04:42;;;;;;;0.60;0.30;;;7.60;99.90;;;;;;5054652;28;20805;-86
2023/12/24 07:07:09;;;;;;;0.40;0.30;;;7.60;99.90;;;;;;5054632;28;20859;-86
2023/12/24 07:09:36;;;;;;;1.73;0.40;;;7.60;99.90;;;;;;5055061;28;20867;-87
2023/12/24 07:12:04;;;;;;;1.03;0.40;;;7.60;99.90;;;;;;5054489;28;20959;-87
2023/12/24 07:14:32;;;;;;;0.40;0.30;;;7.50;99.90;;;;;;5054984;28;20812;-86
2023/12/24 07:16:59;;;;;;;0.30;0.30;;;7.50;99.90;;;;;;5054431;28;20465;-86
2023/12/24 07:19:25;;;;;;;0.40;0.30;;;7.60;99.90;;;;;;5054763;28;20446;-87
2023/12/24 07:21:52;;;;;;;0.40;0.40;;;7.60;99.90;;;;;;5054229;28;20931;-87
2023/12/24 07:24:19;;;;;;;0.30;0.30;;;7.60;99.90;;;;;;5054908;28;20438;-86
2023/12/24 07:26:46;;;;;;;0.30;0.30;;;7.60;99.90;;;;;;5061544;28;20474;-86
2023/12/24 07:29:12;;;;;;;0.43;0.40;;;7.60;99.90;;;;;;5071580;28;20446;-86
2023/12/24 07:31:40;;;;;;;1.30;0.30;;;7.60;99.90;;;;;;5054632;28;20801;-86
2023/12/24 07:34:07;;;;;;;0.30;0.30;;;7.60;99.90;;;;;;5053831;28;20442;-87
2023/12/24 07:36:34;;;;;;;0.30;0.30;;;7.60;99.90;;;;;;5053646;28;20454;-87
2023/12/24 07:39:01;;;;;;;0.30;0.20;;;7.60;99.90;;;;;;5054296;28;20442;-87
2023/12/24 07:41:27;;;;;;;0.30;0.20;;;7.70;99.90;;;;;;5054182;28;20442;-90
2023/12/24 07:43:54;;;;;;;0.40;0.30;;;7.60;99.90;;;;;;5054203;28;20438;-87
2023/12/24 07:46:21;;;;;;;0.30;0.30;;;7.60;99.90;;;;;;5054391;28;20473;-86
2023/12/24 07:48:49;;;;;;;0.40;0.30;;;7.70;99.90;;;;;;5053305;28;20449;-86
2023/12/24 07:51:16;;;;;;;0.40;0.30;;;7.70;99.90;;;;;;5053621;28;20430;-86
2023/12/24 07:53:42;;;;;;;0.30;0.30;;;7.70;99.90;;;;;;5054174;28;20491;-86
2023/12/24 07:56:10;;;;;;;0.30;0.20;;;7.70;99.90;;;;;;5054202;28;20500;-86
2023/12/24 07:58:37;;;;;;;0.30;0.30;;;7.70;99.90;;;;;;5053790;28;20473;-86
2023/12/24 08:01:04;;;;;;;0.30;0.20;;;7.70;99.90;;;;;;5053106;28;20442;-87
2023/12/24 08:03:31;;;;;;;0.30;0.30;;;7.70;99.90;;;;;;5054027;28;20851;-87
2023/12/24 08:05:59;;;;;;;0.30;0.30;;;7.80;99.90;;;;;;5053033;28;20476;-86
2023/12/24 08:08:26;;;;;;;0.30;0.27;;;7.80;99.90;;;;;;5053122;28;20478;-85
2023/12/24 08:10:53;;;;;;;0.30;0.30;;;7.80;99.90;;;;;;5053788;28;20441;-81
2023/12/24 08:13:20;;;;;;;0.30;0.30;;;7.80;99.90;;;;;;5053809;28;20430;-80
2023/12/24 08:15:47;;;;;;;0.50;0.50;;;7.90;99.90;;;;;;5053717;28;20446;-81
2023/12/24 08:18:15;;;;;;;0.30;0.20;;;7.90;99.90;;;;;;5054973;28;20543;-81
2023/12/24 08:20:42;;;;;;;0.30;0.30;;;7.90;99.90;;;;;;5054239;28;20517;-81
2023/12/24 08:23:10;;;;;;;0.30;0.20;;;7.90;99.90;;;;;;5053937;28;20454;-81
2023/12/24 08:25:37;;;;;;;0.30;0.30;;;7.90;99.90;;;;;;5055022;28;20474;-80
2023/12/24 08:28:06;;;;;;;0.60;0.30;;;7.90;99.90;;;;;;5053930;28;20986;-81
2023/12/24 08:30:32;;;;;;;0.40;0.33;;;8.00;99.90;;;;;;5054446;28;20433;-81
2023/12/24 08:32:59;;;;;;;0.30;0.23;;;8.00;99.90;;;;;;5053842;28;20457;-81
2023/12/24 08:35:26;;;;;;;0.30;0.30;;;8.00;99.90;;;;;;5053213;28;20434;-82
2023/12/24 08:37:53;;;;;;;0.33;0.27;;;8.00;99.90;;;;;;5053512;28;20473;-83
2023/12/24 08:40:22;;;;;;;0.30;0.20;;;8.00;99.90;;;;;;5053617;28;20445;-83
2023/12/24 08:42:49;;;;;;;0.30;0.20;;;8.10;99.90;;;;;;5052191;28;20955;-81
2023/12/24 08:45:15;;;;;;;0.30;0.20;;;8.20;99.90;;;;;;5053372;28;20430;-81
2023/12/24 08:47:42;;;;;;;0.30;0.30;;;8.30;99.90;;;;;;5054133;28;20468;-81
2023/12/24 08:50:10;;;;;;;0.33;0.30;;;8.40;99.90;;;;;;5053361;28;21012;-81
2023/12/24 08:52:36;;;;;;;0.30;0.30;;;8.30;99.90;;;;;;5052914;28;20446;-81
2023/12/24 08:55:06;;;;;;;0.40;0.30;;;8.30;99.90;;;;;;5053694;28;20438;-82
2023/12/24 08:57:34;;;;;;;0.30;0.30;;;8.40;99.90;;;;;;5053575;28;20497;-81
2023/12/24 09:00:01;;;;;;;0.30;0.30;;;8.30;99.90;;;;;;5053734;28;20449;-81
2023/12/24 09:02:28;;;;;;;0.57;0.30;;;8.40;99.90;;;;;;5053844;28;20434;-81
2023/12/24 09:04:57;;;;;;;0.30;0.30;;;8.40;99.90;;;;;;5053662;28;20454;-81
2023/12/24 09:07:23;;;;;;;0.30;0.20;;;8.40;99.90;;;;;;5053218;28;20490;-81
2023/12/24 09:09:51;;;;;;;0.30;0.30;;;8.50;99.90;;;;;;5053470;28;20510;-81
2023/12/24 09:12:19;;;;;;;0.30;0.20;;;8.50;99.90;;;;;;5054558;28;20791;-78
2023/12/24 09:14:47;;;;;;;0.40;0.30;;;8.50;99.90;;;;;;5056961;28;20454;-79
2023/12/24 09:17:14;;;;;;;0.60;0.60;;;8.60;99.90;;;;;;5056897;28;20464;-80
2023/12/24 09:19:41;;;;;;;0.30;0.30;;;8.60;99.90;;;;;;5057658;28;20449;-81
2023/12/24 09:22:07;;;;;;;0.93;0.37;;;8.60;99.90;;;;;;5057105;28;20438;-81
2023/12/24 09:24:34;;;;;;;0.53;0.30;;;8.50;99.90;;;;;;5057416;28;20556;-81
2023/12/24 09:27:01;;;;;;;0.30;0.20;;;8.40;99.90;;;;;;5057402;28;20487;-81
2023/12/24 09:29:28;;;;;;;0.30;0.30;;;8.50;99.90;;;;;;5057360;28;20445;-81
2023/12/24 09:31:56;;;;;;;0.30;0.20;;;8.50;99.90;;;;;;5058169;28;20433;-81
2023/12/24 09:34:23;;;;;;;0.30;0.30;;;8.50;99.90;;;;;;5064782;28;20934;-79
2023/12/24 09:36:50;;;;;;;0.30;0.30;;;8.50;99.90;;;;;;5056940;28;20515;-80
2023/12/24 09:39:16;;;;;;;0.40;0.30;;;8.50;99.90;;;;;;5058251;28;20437;-80
2023/12/24 09:41:43;;;;;;;0.30;0.30;;;8.50;99.90;;;;;;5059736;28;20444;-80
2023/12/24 09:44:10;;;;;;;0.30;0.30;;;8.50;99.90;;;;;;5059647;28;20456;-80
2023/12/24 09:46:37;;;;;;;0.30;0.30;;;8.50;99.90;;;;;;5059315;28;20473;-81
2023/12/24 09:49:05;;;;;;;0.60;0.33;;;8.40;99.90;;;;;;5057196;28;20440;-81
2023/12/24 09:51:34;;;;;;;0.30;0.30;;;8.50;99.90;;;;;;5058422;28;20495;-81
2023/12/24 09:54:02;;;;;;;0.30;0.30;;;8.50;99.90;;;;;;5057541;28;20433;-82
2023/12/24 09:56:29;;;;;;;0.33;0.30;;;8.50;99.90;;;;;;5057697;28;20441;-82
2023/12/24 09:58:56;;;;;;;0.30;0.30;;;8.50;99.90;;;;;;5069408;28;20440;-81
2023/12/24 10:01:22;;;;;;;0.40;0.30;;;8.60;99.90;;;;;;5056547;28;20444;-81
2023/12/24 10:03:48;;;;;;;0.53;0.40;;;8.60;99.90;;;;;;5057934;28;20943;-81
2023/12/24 10:06:17;;;;;;;0.30;0.30;;;8.50;99.90;;;;;;5058183;28;20473;-82
2023/12/24 10:08:44;;;;;;;0.37;0.30;;;8.40;99.90;;;;;;5056276;28;20330;-81
2023/12/24 10:11:16;;;;;;;0.40;0.30;;;8.40;99.90;;;;;;5056101;28;20453;-82
2023/12/24 10:13:42;;;;;;;0.37;0.30;;;8.50;99.90;;;;;;5056313;28;20488;-80
2023/12/24 10:16:09;;;;;;;0.70;0.60;;;8.40;99.90;;;;;;5056182;28;20429;-82
2023/12/24 10:18:37;;;;;;;0.30;0.30;;;8.50;99.90;;;;;;5055430;28;20479;-82
2023/12/24 10:21:05;;;;;;;0.30;0.20;;;8.50;99.90;;;;;;5055934;28;20778;-81
2023/12/24 10:23:33;;;;;;;0.30;0.30;;;8.50;99.90;;;;;;5055421;28;20813;-81
2023/12/24 10:26:05;;;;;;;0.30;0.20;;;8.60;99.90;;;;;;5055428;28;20478;-82
2023/12/24 10:28:32;;;;;;;0.30;0.20;;;8.60;99.90;;;;;;5055502;28;20881;-81
2023/12/24 10:31:07;;;;;;;0.30;0.30;;;8.60;99.90;;;;;;5054854;28;20998;-81
2023/12/24 10:33:33;;;;;;;0.30;0.20;;;8.60;99.90;;;;;;5045055;28;20451;-80
2023/12/24 10:36:00;;;;;;;0.30;0.20;;;8.60;99.90;;;;;;5056606;28;20453;-81
2023/12/24 10:38:28;;;;;;;0.50;0.30;;;8.70;99.90;;;;;;5055862;28;20462;-80
2023/12/24 10:40:56;;;;;;;0.37;0.27;;;8.60;99.90;;;;;;5056412;28;20469;-81
2023/12/24 10:43:23;;;;;;;0.60;0.30;;;8.70;99.90;;;;;;5055677;28;20932;-81
2023/12/24 10:45:50;;;;;;;0.70;0.30;;;8.70;99.90;;;;;;5055916;28;20492;-81
2023/12/24 10:48:17;;;;;;;0.40;0.30;;;8.80;99.90;;;;;;5056241;28;20473;-81
2023/12/24 10:50:44;;;;;;;0.30;0.30;;;8.80;99.90;;;;;;5056339;28;20450;-81
2023/12/24 10:53:11;;;;;;;0.30;0.30;;;8.80;99.90;;;;;;5055370;28;20468;-81
2023/12/24 10:55:40;;;;;;;0.30;0.30;;;8.70;99.90;;;;;;5049457;28;20450;-82
2023/12/24 10:58:20;;;;;;;0.30;0.30;;;8.70;99.90;;;;;;5039412;28;20462;-81
2023/12/24 11:00:47;;;;;;;0.50;0.30;;;8.80;99.90;;;;;;5056716;28;20430;-83
2023/12/24 11:03:42;;;;;;;0.30;0.30;;;8.80;99.90;;;;;;5055858;28;20446;-81
2023/12/24 11:06:09;;;;;;;0.30;0.20;;;9.00;99.90;;;;;;5055525;28;20515;-81
2023/12/24 11:08:36;;;;;;;0.30;0.20;;;9.00;99.90;;;;;;5054923;28;20543;-82
2023/12/24 11:11:04;;;;;;;0.30;0.30;;;8.90;99.90;;;;;;5055461;28;20441;-81
2023/12/24 11:13:47;;;;;;;0.30;0.30;;;9.00;99.90;;;;;;5056092;28;20449;-81
2023/12/24 11:16:39;;;;;;;0.30;0.30;;;8.90;99.90;;;;;;5056434;28;20934;-81
2023/12/24 11:19:06;;;;;;;0.40;0.30;;;9.00;99.90;;;;;;5056805;28;20422;-81
2023/12/24 11:21:53;;;;;;;0.30;0.30;;;9.00;99.90;;;;;;5056719;28;20923;-81
2023/12/24 11:24:21;;;;;;;0.30;0.20;;;9.00;99.90;;;;;;5055152;28;20442;-81
2023/12/24 11:26:51;;;;;;;0.30;0.20;;;9.10;99.90;;;;;;5055728;28;20458;-81
2023/12/24 11:29:46;;;;;;;0.40;0.30;;;9.00;99.90;;;;;;5055924;28;20453;-80
2023/12/24 11:32:37;;;;;;;0.30;0.20;;;9.20;99.90;;;;;;5058569;28;20437;-81
2023/12/24 11:35:06;;;;;;;0.30;0.30;;;9.20;99.90;;;;;;5056356;28;20819;-81
2023/12/24 11:37:35;;;;;;;0.30;0.30;;;9.30;99.90;;;;;;5057332;28;20457;-81
2023/12/24 11:40:03;;;;;;;0.33;0.23;;;9.40;99.90;;;;;;5055310;28;20500;-79
2023/12/24 11:42:42;;;;;;;0.30;0.30;;;9.40;99.90;;;;;;5054296;28;20449;-78
2023/12/24 11:45:19;;;;;;;0.37;0.33;;;9.40;99.90;;;;;;5054860;28;20505;-79
2023/12/24 11:47:46;;;;;;;0.40;0.30;;;9.40;99.90;;;;;;5065013;28;20507;-79
2023/12/24 11:50:13;;;;;;;0.30;0.30;;;9.50;99.90;;;;;;5054496;28;20456;-81
2023/12/24 11:52:43;;;;;;;1.37;0.60;;;9.60;99.90;;;;;;5053775;28;20452;-79
2023/12/24 11:55:10;;;;;;;0.30;0.30;;;9.60;99.90;;;;;;5053954;28;20452;-80
2023/12/24 11:57:37;;;;;;;0.40;0.30;;;9.60;99.90;;;;;;5053833;28;20580;-80
2023/12/24 12:00:05;;;;;;;0.30;0.30;;;9.60;99.90;;;;;;5054173;28;20445;-81
2023/12/24 12:02:33;;;;;;;0.40;0.30;;;9.60;99.90;;;;;;5053719;28;20926;-80
2023/12/24 12:05:00;;;;;;;0.30;0.30;;;9.50;99.90;;;;;;5054509;28;20826;-79
2023/12/24 12:07:26;;;;;;;0.30;0.30;;;9.50;99.90;;;;;;5051913;28;20481;-80
2023/12/24 12:09:53;;;;;;;0.30;0.27;;;9.50;99.90;;;;;;5052765;28;20438;-80
2023/12/24 12:12:20;;;;;;;0.30;0.30;;;9.60;99.90;;;;;;5052799;28;20442;-80
2023/12/24 12:14:46;;;;;;;0.40;0.30;;;9.50;99.90;;;;;;5052898;28;20445;-80
2023/12/24 12:17:13;;;;;;;0.33;0.30;;;9.60;99.90;;;;;;5053497;28;20454;-80
2023/12/24 12:19:41;;;;;;;0.30;0.20;;;9.50;99.90;;;;;;5054412;28;20448;-79
2023/12/24 12:22:08;;;;;;;0.30;0.30;;;9.60;99.90;;;;;;5055899;28;20438;-79
2023/12/24 12:24:35;;;;;;;0.30;0.30;;;9.60;99.90;;;;;;5053075;28;20449;-79
2023/12/24 12:27:01;;;;;;;0.30;0.30;;;9.70;99.90;;;;;;5053065;28;20489;-80
2023/12/24 12:29:28;;;;;;;0.30;0.30;;;9.70;99.90;;;;;;5054007;28;20821;-80
2023/12/24 12:31:58;;;;;;;0.30;0.30;;;9.80;99.90;;;;;;5054310;28;20427;-81
2023/12/24 12:34:24;;;;;;;0.40;0.40;;;9.70;99.90;;;;;;5052915;28;20434;-80
2023/12/24 12:36:52;;;;;;;0.30;0.30;;;9.50;99.90;;;;;;5053933;28;20458;-81
2023/12/24 12:39:19;;;;;;;0.30;0.30;;;9.50;99.90;;;;;;5054055;28;20438;-80
2023/12/24 12:41:46;;;;;;;0.30;0.30;;;9.50;99.90;;;;;;5054049;28;20525;-80
2023/12/24 12:44:13;;;;;;;0.30;0.27;;;9.40;99.90;;;;;;5053333;28;20442;-80
2023/12/24 12:46:40;;;;;;;0.30;0.20;;;9.40;99.90;;;;;;5054641;28;20465;-80
2023/12/24 12:49:07;;;;;;;0.30;0.30;;;9.40;99.90;;;;;;5058192;28;20473;-79
2023/12/24 12:51:34;;;;;;;0.30;0.30;;;9.40;99.90;;;;;;5056581;28;20445;-81
2023/12/24 12:54:07;;;;;;;0.30;0.30;;;9.40;99.90;;;;;;5056288;28;20951;-80
2023/12/24 12:56:42;;;;;;;0.30;0.30;;;9.40;99.90;;;;;;5057212;28;20429;-80
2023/12/24 12:59:09;;;;;;;0.30;0.20;;;9.40;99.90;;;;;;5056662;28;20806;-81
2023/12/24 13:01:40;;;;;;;0.30;0.30;;;9.40;99.90;;;;;;5056054;28;20445;-78